sensor_id;sensor_type;location;lat;lon;timestamp;P1;durP1;ratioP1;P2;durP2;ratioP2
13240;SDS011;6687;47.790;7.322;2023-02-15T06:11:37;1.88;;;1.70;;
13240;SDS011;6687;47.790;7.322;2023-02-15T06:14:04;1.52;;;1.00;;
13240;SDS011;6687;47.790;7.322;2023-02-15T06:16:30;1.13;;;1.08;;
13240;SDS011;6687;47.790;7.322;2023-02-15T06:18:57;0.75;;;0.75;;
13240;SDS011;6687;47.790;7.322;2023-02-15T06:21:26;2.28;;;2.08;;
13240;SDS011;6687;47.790;7.322;2023-02-15T06:23:53;1.40;;;1.17;;
13240;SDS011;6687;47.790;7.322;2023-02-15T06:26:19;1.55;;;1.30;;
13240;SDS011;6687;47.790;7.322;2023-02-15T06:28:48;2.00;;;1.33;;
13240;SDS011;6687;47.790;7.322;2023-02-15T06:31:14;0.82;;;0.82;;
13240;SDS011;6687;47.790;7.322;2023-02-15T06:33:41;1.35;;;1.25;;
13240;SDS011;6687;47.790;7.322;2023-02-15T06:36:08;0.80;;;0.80;;
13240;SDS011;6687;47.790;7.322;2023-02-15T06:38:35;1.70;;;1.60;;
13240;SDS011;6687;47.790;7.322;2023-02-15T06:41:01;1.67;;;1.20;;
13240;SDS011;6687;47.790;7.322;2023-02-15T06:43:28;0.60;;;0.60;;
13240;SDS011;6687;47.790;7.322;2023-02-15T06:45:57;1.20;;;1.08;;
13240;SDS011;6687;47.790;7.322;2023-02-15T06:48:24;1.02;;;0.95;;
13240;SDS011;6687;47.790;7.322;2023-02-15T06:50:51;1.27;;;0.90;;
13240;SDS011;6687;47.790;7.322;2023-02-15T06:53:17;0.40;;;0.40;;
13240;SDS011;6687;47.790;7.322;2023-02-15T06:55:44;1.02;;;0.85;;
13240;SDS011;6687;47.790;7.322;2023-02-15T06:58:11;0.80;;;0.68;;
13240;SDS011;6687;47.790;7.322;2023-02-15T07:00:38;1.27;;;1.15;;
13240;SDS011;6687;47.790;7.322;2023-02-15T07:03:06;2.72;;;1.23;;
13240;SDS011;6687;47.790;7.322;2023-02-15T07:05:33;1.27;;;1.05;;
13240;SDS011;6687;47.790;7.322;2023-02-15T07:08:00;1.95;;;1.17;;
13240;SDS011;6687;47.790;7.322;2023-02-15T07:10:27;1.10;;;1.00;;
13240;SDS011;6687;47.790;7.322;2023-02-15T07:12:54;1.23;;;1.13;;
13240;SDS011;6687;47.790;7.322;2023-02-15T07:15:20;0.95;;;0.95;;
13240;SDS011;6687;47.790;7.322;2023-02-15T07:17:47;2.10;;;1.60;;
13240;SDS011;6687;47.790;7.322;2023-02-15T07:20:16;2.38;;;1.25;;
13240;SDS011;6687;47.790;7.322;2023-02-15T07:22:45;3.40;;;1.52;;
13240;SDS011;6687;47.790;7.322;2023-02-15T07:25:12;2.42;;;1.20;;
13240;SDS011;6687;47.790;7.322;2023-02-15T07:27:39;0.88;;;0.88;;
13240;SDS011;6687;47.790;7.322;2023-02-15T07:30:07;2.28;;;1.48;;
13240;SDS011;6687;47.790;7.322;2023-02-15T07:32:36;1.05;;;1.00;;
13240;SDS011;6687;47.790;7.322;2023-02-15T07:35:24;1.35;;;1.25;;
13240;SDS011;6687;47.790;7.322;2023-02-15T07:37:51;1.45;;;1.35;;
13240;SDS011;6687;47.790;7.322;2023-02-15T07:40:18;1.25;;;1.15;;
13240;SDS011;6687;47.790;7.322;2023-02-15T07:42:47;1.95;;;1.05;;
13240;SDS011;6687;47.790;7.322;2023-02-15T07:45:14;1.58;;;1.25;;
13240;SDS011;6687;47.790;7.322;2023-02-15T07:47:41;1.77;;;1.13;;
13240;SDS011;6687;47.790;7.322;2023-02-15T07:50:07;2.15;;;1.85;;
13240;SDS011;6687;47.790;7.322;2023-02-15T07:52:36;1.65;;;1.55;;
13240;SDS011;6687;47.790;7.322;2023-02-15T07:55:03;1.00;;;1.00;;
13240;SDS011;6687;47.790;7.322;2023-02-15T07:57:30;1.77;;;1.63;;
13240;SDS011;6687;47.790;7.322;2023-02-15T07:59:56;1.30;;;1.20;;
13240;SDS011;6687;47.790;7.322;2023-02-15T08:02:23;1.27;;;1.17;;
13240;SDS011;6687;47.790;7.322;2023-02-15T08:04:50;0.90;;;0.90;;
13240;SDS011;6687;47.790;7.322;2023-02-15T08:07:17;1.08;;;1.00;;
13240;SDS011;6687;47.790;7.322;2023-02-15T08:09:45;2.03;;;1.17;;
13240;SDS011;6687;47.790;7.322;2023-02-15T08:12:11;1.42;;;1.40;;
13240;SDS011;6687;47.790;7.322;2023-02-15T08:14:38;1.02;;;0.98;;
13240;SDS011;6687;47.790;7.322;2023-02-15T08:17:05;1.65;;;1.00;;
13240;SDS011;6687;47.790;7.322;2023-02-15T08:19:32;1.33;;;1.17;;
13240;SDS011;6687;47.790;7.322;2023-02-15T08:22:00;1.33;;;1.23;;
13240;SDS011;6687;47.790;7.322;2023-02-15T08:24:29;1.75;;;1.00;;
13240;SDS011;6687;47.790;7.322;2023-02-15T08:26:59;2.65;;;0.98;;
13240;SDS011;6687;47.790;7.322;2023-02-15T08:29:28;1.48;;;1.38;;
13240;SDS011;6687;47.790;7.322;2023-02-15T08:31:57;1.00;;;1.00;;
13240;SDS011;6687;47.790;7.322;2023-02-15T08:34:27;2.13;;;1.60;;
13240;SDS011;6687;47.790;7.322;2023-02-15T08:36:55;2.05;;;1.30;;
13240;SDS011;6687;47.790;7.322;2023-02-15T08:39:22;2.35;;;1.33;;
13240;SDS011;6687;47.790;7.322;2023-02-15T08:41:48;1.98;;;1.30;;
13240;SDS011;6687;47.790;7.322;2023-02-15T08:44:17;1.58;;;1.50;;
13240;SDS011;6687;47.790;7.322;2023-02-15T08:46:45;1.42;;;1.33;;
13240;SDS011;6687;47.790;7.322;2023-02-15T08:49:15;1.45;;;1.35;;
13240;SDS011;6687;47.790;7.322;2023-02-15T08:51:43;1.17;;;1.10;;
13240;SDS011;6687;47.790;7.322;2023-02-15T08:54:12;2.35;;;2.15;;
13240;SDS011;6687;47.790;7.322;2023-02-15T08:56:40;0.75;;;0.75;;
13240;SDS011;6687;47.790;7.322;2023-02-15T08:59:11;3.08;;;1.33;;
13240;SDS011;6687;47.790;7.322;2023-02-15T09:01:40;1.30;;;1.23;;
13240;SDS011;6687;47.790;7.322;2023-02-15T09:04:08;2.17;;;1.58;;
13240;SDS011;6687;47.790;7.322;2023-02-15T09:06:35;3.08;;;1.58;;
13240;SDS011;6687;47.790;7.322;2023-02-15T09:09:03;2.58;;;1.58;;
13240;SDS011;6687;47.790;7.322;2023-02-15T09:11:30;1.17;;;1.17;;
13240;SDS011;6687;47.790;7.322;2023-02-15T09:14:01;1.35;;;1.20;;
13240;SDS011;6687;47.790;7.322;2023-02-15T09:16:30;1.13;;;1.02;;
13240;SDS011;6687;47.790;7.322;2023-02-15T09:19:00;2.25;;;1.60;;
13240;SDS011;6687;47.790;7.322;2023-02-15T09:21:29;2.05;;;1.85;;
13240;SDS011;6687;47.790;7.322;2023-02-15T09:23:58;1.30;;;1.20;;
13240;SDS011;6687;47.790;7.322;2023-02-15T09:26:26;2.55;;;1.58;;
13240;SDS011;6687;47.790;7.322;2023-02-15T09:28:55;1.17;;;1.17;;
13240;SDS011;6687;47.790;7.322;2023-02-15T09:31:23;1.25;;;0.98;;
13240;SDS011;6687;47.790;7.322;2023-02-15T09:33:51;1.52;;;1.42;;
13240;SDS011;6687;47.790;7.322;2023-02-15T09:36:21;1.00;;;1.00;;
13240;SDS011;6687;47.790;7.322;2023-02-15T09:38:52;1.65;;;1.55;;
13240;SDS011;6687;47.790;7.322;2023-02-15T09:41:26;1.10;;;0.95;;
13240;SDS011;6687;47.790;7.322;2023-02-15T09:44:07;2.03;;;1.45;;
13240;SDS011;6687;47.790;7.322;2023-02-15T09:46:44;2.08;;;1.27;;
13240;SDS011;6687;47.790;7.322;2023-02-15T09:49:23;1.42;;;1.33;;
13240;SDS011;6687;47.790;7.322;2023-02-15T09:52:04;1.48;;;1.35;;
13240;SDS011;6687;47.790;7.322;2023-02-15T09:57:47;1.95;;;1.33;;
13240;SDS011;6687;47.790;7.322;2023-02-15T10:00:23;1.88;;;1.67;;
13240;SDS011;6687;47.790;7.322;2023-02-15T10:03:02;2.63;;;1.42;;
13240;SDS011;6687;47.790;7.322;2023-02-15T10:05:43;1.42;;;1.33;;
13240;SDS011;6687;47.790;7.322;2023-02-15T10:08:29;1.83;;;1.63;;
13240;SDS011;6687;47.790;7.322;2023-02-15T10:11:08;2.13;;;1.55;;
13240;SDS011;6687;47.790;7.322;2023-02-15T10:14:01;2.13;;;1.80;;
13240;SDS011;6687;47.790;7.322;2023-02-15T10:16:38;2.55;;;1.98;;
13240;SDS011;6687;47.790;7.322;2023-02-15T10:19:17;1.67;;;1.58;;
13240;SDS011;6687;47.790;7.322;2023-02-15T10:21:56;2.35;;;1.20;;
13240;SDS011;6687;47.790;7.322;2023-02-15T10:24:44;1.95;;;1.40;;
13240;SDS011;6687;47.790;7.322;2023-02-15T10:27:22;1.23;;;1.13;;
13240;SDS011;6687;47.790;7.322;2023-02-15T10:29:52;1.27;;;1.17;;
13240;SDS011;6687;47.790;7.322;2023-02-15T10:32:30;1.50;;;1.40;;
13240;SDS011;6687;47.790;7.322;2023-02-15T10:35:04;1.95;;;1.63;;
13240;SDS011;6687;47.790;7.322;2023-02-15T10:40:34;1.00;;;1.00;;
13240;SDS011;6687;47.790;7.322;2023-02-15T10:43:16;2.28;;;1.73;;
13240;SDS011;6687;47.790;7.322;2023-02-15T10:45:54;1.52;;;1.42;;
13240;SDS011;6687;47.790;7.322;2023-02-15T10:51:34;2.70;;;1.73;;
13240;SDS011;6687;47.790;7.322;2023-02-15T10:54:12;2.75;;;1.85;;
13240;SDS011;6687;47.790;7.322;2023-02-15T10:56:51;2.10;;;2.00;;
13240;SDS011;6687;47.790;7.322;2023-02-15T10:59:36;1.35;;;1.25;;
13240;SDS011;6687;47.790;7.322;2023-02-15T11:02:17;2.38;;;1.80;;
13240;SDS011;6687;47.790;7.322;2023-02-15T11:04:55;1.95;;;1.38;;
13240;SDS011;6687;47.790;7.322;2023-02-15T11:07:35;1.48;;;1.38;;
13240;SDS011;6687;47.790;7.322;2023-02-15T11:10:10;1.77;;;1.67;;
13240;SDS011;6687;47.790;7.322;2023-02-15T11:12:49;1.98;;;1.55;;
13240;SDS011;6687;47.790;7.322;2023-02-15T11:15:18;1.67;;;1.58;;
13240;SDS011;6687;47.790;7.322;2023-02-15T11:17:50;2.03;;;1.77;;
13240;SDS011;6687;47.790;7.322;2023-02-15T11:20:23;2.35;;;2.15;;
13240;SDS011;6687;47.790;7.322;2023-02-15T11:22:54;1.65;;;1.55;;
13240;SDS011;6687;47.790;7.322;2023-02-15T11:25:23;1.75;;;1.60;;
13240;SDS011;6687;47.790;7.322;2023-02-15T11:27:55;1.52;;;1.42;;
13240;SDS011;6687;47.790;7.322;2023-02-15T11:30:23;1.65;;;1.55;;
13240;SDS011;6687;47.790;7.322;2023-02-15T11:32:54;2.05;;;1.17;;
13240;SDS011;6687;47.790;7.322;2023-02-15T11:35:27;1.02;;;1.00;;
13240;SDS011;6687;47.790;7.322;2023-02-15T11:38:01;1.92;;;1.65;;
13240;SDS011;6687;47.790;7.322;2023-02-15T11:40:33;2.25;;;1.48;;
13240;SDS011;6687;47.790;7.322;2023-02-15T11:43:04;1.13;;;1.05;;
13240;SDS011;6687;47.790;7.322;2023-02-15T11:45:37;1.83;;;1.73;;
13240;SDS011;6687;47.790;7.322;2023-02-15T11:48:08;1.05;;;1.00;;
13240;SDS011;6687;47.790;7.322;2023-02-15T11:50:36;1.80;;;1.65;;
13240;SDS011;6687;47.790;7.322;2023-02-15T11:53:04;4.30;;;2.25;;
13240;SDS011;6687;47.790;7.322;2023-02-15T11:55:36;1.50;;;1.40;;
13240;SDS011;6687;47.790;7.322;2023-02-15T11:58:05;2.00;;;1.52;;
13240;SDS011;6687;47.790;7.322;2023-02-15T12:00:40;2.05;;;1.73;;
13240;SDS011;6687;47.790;7.322;2023-02-15T12:03:12;1.70;;;1.60;;
13240;SDS011;6687;47.790;7.322;2023-02-15T12:05:42;1.90;;;1.75;;
13240;SDS011;6687;47.790;7.322;2023-02-15T12:08:16;1.70;;;1.60;;
13240;SDS011;6687;47.790;7.322;2023-02-15T12:10:52;1.60;;;1.50;;
13240;SDS011;6687;47.790;7.322;2023-02-15T12:13:26;1.85;;;1.60;;
13240;SDS011;6687;47.790;7.322;2023-02-15T12:15:54;4.10;;;2.55;;
13240;SDS011;6687;47.790;7.322;2023-02-15T12:21:10;1.50;;;1.50;;
13240;SDS011;6687;47.790;7.322;2023-02-15T12:23:42;2.45;;;2.15;;
13240;SDS011;6687;47.790;7.322;2023-02-15T12:26:13;3.47;;;1.50;;
13240;SDS011;6687;47.790;7.322;2023-02-15T12:28:42;1.55;;;1.45;;
13240;SDS011;6687;47.790;7.322;2023-02-15T12:31:19;1.23;;;1.10;;
13240;SDS011;6687;47.790;7.322;2023-02-15T12:33:48;2.03;;;1.92;;
13240;SDS011;6687;47.790;7.322;2023-02-15T12:36:19;2.17;;;2.08;;
13240;SDS011;6687;47.790;7.322;2023-02-15T12:39:02;2.20;;;1.98;;
13240;SDS011;6687;47.790;7.322;2023-02-15T12:41:31;2.78;;;2.28;;
13240;SDS011;6687;47.790;7.322;2023-02-15T12:44:07;2.65;;;2.08;;
13240;SDS011;6687;47.790;7.322;2023-02-15T12:46:44;1.50;;;1.40;;
13240;SDS011;6687;47.790;7.322;2023-02-15T12:49:22;2.10;;;2.00;;
13240;SDS011;6687;47.790;7.322;2023-02-15T12:51:50;2.17;;;1.75;;
13240;SDS011;6687;47.790;7.322;2023-02-15T12:54:37;1.50;;;1.40;;
13240;SDS011;6687;47.790;7.322;2023-02-15T12:57:20;2.05;;;1.50;;
13240;SDS011;6687;47.790;7.322;2023-02-15T12:59:52;1.38;;;1.35;;
13240;SDS011;6687;47.790;7.322;2023-02-15T13:02:25;2.03;;;1.92;;
13240;SDS011;6687;47.790;7.322;2023-02-15T13:04:55;1.75;;;1.65;;
13240;SDS011;6687;47.790;7.322;2023-02-15T13:07:25;1.63;;;1.52;;
13240;SDS011;6687;47.790;7.322;2023-02-15T13:09:57;4.75;;;2.00;;
13240;SDS011;6687;47.790;7.322;2023-02-15T13:12:25;2.65;;;2.15;;
13240;SDS011;6687;47.790;7.322;2023-02-15T13:14:57;2.33;;;2.13;;
13240;SDS011;6687;47.790;7.322;2023-02-15T13:17:28;1.48;;;1.45;;
13240;SDS011;6687;47.790;7.322;2023-02-15T13:20:00;1.70;;;1.58;;
13240;SDS011;6687;47.790;7.322;2023-02-15T13:22:36;2.17;;;2.08;;
13240;SDS011;6687;47.790;7.322;2023-02-15T13:25:10;1.50;;;1.40;;
13240;SDS011;6687;47.790;7.322;2023-02-15T13:27:41;2.13;;;1.77;;
13240;SDS011;6687;47.790;7.322;2023-02-15T13:30:16;1.92;;;1.83;;
13240;SDS011;6687;47.790;7.322;2023-02-15T13:32:50;3.83;;;2.58;;
13240;SDS011;6687;47.790;7.322;2023-02-15T13:35:21;1.95;;;1.67;;
13240;SDS011;6687;47.790;7.322;2023-02-15T13:38:01;3.78;;;2.47;;
13240;SDS011;6687;47.790;7.322;2023-02-15T13:40:38;2.63;;;1.83;;
13240;SDS011;6687;47.790;7.322;2023-02-15T13:43:14;2.03;;;1.92;;
13240;SDS011;6687;47.790;7.322;2023-02-15T13:45:55;1.88;;;1.67;;
13240;SDS011;6687;47.790;7.322;2023-02-15T13:48:34;1.85;;;1.75;;
13240;SDS011;6687;47.790;7.322;2023-02-15T13:51:08;1.73;;;1.48;;
13240;SDS011;6687;47.790;7.322;2023-02-15T13:53:50;3.35;;;2.30;;
13240;SDS011;6687;47.790;7.322;2023-02-15T13:56:35;2.17;;;1.30;;
13240;SDS011;6687;47.790;7.322;2023-02-15T13:59:16;3.00;;;2.03;;
13240;SDS011;6687;47.790;7.322;2023-02-15T14:02:03;1.80;;;1.70;;
13240;SDS011;6687;47.790;7.322;2023-02-15T14:04:59;1.30;;;1.20;;
13240;SDS011;6687;47.790;7.322;2023-02-15T14:07:42;2.10;;;2.00;;
13240;SDS011;6687;47.790;7.322;2023-02-15T14:10:28;1.85;;;1.70;;
13240;SDS011;6687;47.790;7.322;2023-02-15T14:13:15;1.75;;;1.55;;
13240;SDS011;6687;47.790;7.322;2023-02-15T14:15:57;1.85;;;1.63;;
13240;SDS011;6687;47.790;7.322;2023-02-15T14:18:32;1.85;;;1.70;;
13240;SDS011;6687;47.790;7.322;2023-02-15T14:21:07;2.28;;;2.00;;
13240;SDS011;6687;47.790;7.322;2023-02-15T14:23:40;1.30;;;1.20;;
13240;SDS011;6687;47.790;7.322;2023-02-15T14:26:19;3.20;;;2.00;;
13240;SDS011;6687;47.790;7.322;2023-02-15T14:28:55;1.90;;;1.70;;
13240;SDS011;6687;47.790;7.322;2023-02-15T14:31:29;1.60;;;1.50;;
13240;SDS011;6687;47.790;7.322;2023-02-15T14:34:01;2.83;;;2.22;;
13240;SDS011;6687;47.790;7.322;2023-02-15T14:36:29;1.25;;;1.20;;
13240;SDS011;6687;47.790;7.322;2023-02-15T14:39:00;2.10;;;1.90;;
13240;SDS011;6687;47.790;7.322;2023-02-15T14:41:59;2.92;;;1.88;;
13240;SDS011;6687;47.790;7.322;2023-02-15T14:44:32;3.08;;;2.13;;
13240;SDS011;6687;47.790;7.322;2023-02-15T14:47:04;1.63;;;1.25;;
13240;SDS011;6687;47.790;7.322;2023-02-15T14:49:39;2.15;;;1.70;;
13240;SDS011;6687;47.790;7.322;2023-02-15T14:52:06;1.75;;;1.65;;
13240;SDS011;6687;47.790;7.322;2023-02-15T14:57:25;2.28;;;1.75;;
13240;SDS011;6687;47.790;7.322;2023-02-15T14:59:56;1.90;;;1.80;;
13240;SDS011;6687;47.790;7.322;2023-02-15T15:02:25;1.50;;;1.40;;
13240;SDS011;6687;47.790;7.322;2023-02-15T15:04:58;2.03;;;1.92;;
13240;SDS011;6687;47.790;7.322;2023-02-15T15:07:35;2.38;;;2.17;;
13240;SDS011;6687;47.790;7.322;2023-02-15T15:10:05;2.67;;;2.47;;
13240;SDS011;6687;47.790;7.322;2023-02-15T15:12:53;1.95;;;1.77;;
13240;SDS011;6687;47.790;7.322;2023-02-15T15:15:32;2.85;;;2.55;;
13240;SDS011;6687;47.790;7.322;2023-02-15T15:18:01;2.72;;;2.10;;
13240;SDS011;6687;47.790;7.322;2023-02-15T15:20:43;2.90;;;2.30;;
13240;SDS011;6687;47.790;7.322;2023-02-15T15:26:21;2.10;;;1.88;;
13240;SDS011;6687;47.790;7.322;2023-02-15T15:28:53;2.65;;;2.45;;
13240;SDS011;6687;47.790;7.322;2023-02-15T15:31:25;3.75;;;3.13;;
13240;SDS011;6687;47.790;7.322;2023-02-15T15:40:20;2.55;;;2.33;;
13240;SDS011;6687;47.790;7.322;2023-02-15T15:46:36;2.00;;;1.70;;
13240;SDS011;6687;47.790;7.322;2023-02-15T15:49:27;2.60;;;1.67;;
13240;SDS011;6687;47.790;7.322;2023-02-15T15:51:59;1.42;;;1.33;;
13240;SDS011;6687;47.790;7.322;2023-02-15T15:54:27;2.28;;;2.13;;
13240;SDS011;6687;47.790;7.322;2023-02-15T15:56:56;2.83;;;2.15;;
13240;SDS011;6687;47.790;7.322;2023-02-15T15:59:26;1.60;;;1.50;;
13240;SDS011;6687;47.790;7.322;2023-02-15T16:01:54;2.00;;;1.90;;
13240;SDS011;6687;47.790;7.322;2023-02-15T16:04:22;2.00;;;1.90;;
13240;SDS011;6687;47.790;7.322;2023-02-15T16:06:51;2.25;;;2.15;;
13240;SDS011;6687;47.790;7.322;2023-02-15T16:09:18;1.92;;;1.83;;
13240;SDS011;6687;47.790;7.322;2023-02-15T16:11:48;2.67;;;2.47;;
13240;SDS011;6687;47.790;7.322;2023-02-15T16:14:20;2.45;;;2.25;;
13240;SDS011;6687;47.790;7.322;2023-02-15T16:16:54;3.88;;;2.55;;
13240;SDS011;6687;47.790;7.322;2023-02-15T16:19:23;2.00;;;1.80;;
13240;SDS011;6687;47.790;7.322;2023-02-15T16:21:53;2.65;;;1.85;;
13240;SDS011;6687;47.790;7.322;2023-02-15T16:24:22;2.88;;;2.30;;
13240;SDS011;6687;47.790;7.322;2023-02-15T16:27:03;2.53;;;2.13;;
13240;SDS011;6687;47.790;7.322;2023-02-15T16:29:47;1.92;;;1.83;;
13240;SDS011;6687;47.790;7.322;2023-02-15T16:32:18;3.03;;;2.65;;
13240;SDS011;6687;47.790;7.322;2023-02-15T16:34:53;3.30;;;2.85;;
13240;SDS011;6687;47.790;7.322;2023-02-15T16:37:22;3.15;;;2.63;;
13240;SDS011;6687;47.790;7.322;2023-02-15T16:39:52;2.38;;;2.17;;
13240;SDS011;6687;47.790;7.322;2023-02-15T16:42:20;3.63;;;2.55;;
13240;SDS011;6687;47.790;7.322;2023-02-15T16:44:50;2.55;;;2.35;;
13240;SDS011;6687;47.790;7.322;2023-02-15T16:47:21;3.42;;;2.90;;
13240;SDS011;6687;47.790;7.322;2023-02-15T16:49:52;2.53;;;2.30;;
13240;SDS011;6687;47.790;7.322;2023-02-15T16:52:21;3.38;;;2.50;;
13240;SDS011;6687;47.790;7.322;2023-02-15T16:54:51;4.10;;;3.08;;
13240;SDS011;6687;47.790;7.322;2023-02-15T16:57:23;3.97;;;2.47;;
13240;SDS011;6687;47.790;7.322;2023-02-15T16:59:55;3.70;;;2.47;;
13240;SDS011;6687;47.790;7.322;2023-02-15T17:02:24;2.65;;;2.45;;
13240;SDS011;6687;47.790;7.322;2023-02-15T17:05:01;2.42;;;1.80;;
13240;SDS011;6687;47.790;7.322;2023-02-15T17:07:34;2.25;;;2.05;;
13240;SDS011;6687;47.790;7.322;2023-02-15T17:10:25;3.28;;;2.80;;
13240;SDS011;6687;47.790;7.322;2023-02-15T17:12:54;2.92;;;1.90;;
13240;SDS011;6687;47.790;7.322;2023-02-15T17:15:28;3.25;;;2.60;;
13240;SDS011;6687;47.790;7.322;2023-02-15T17:17:58;4.55;;;3.00;;
13240;SDS011;6687;47.790;7.322;2023-02-15T17:20:28;2.53;;;2.33;;
13240;SDS011;6687;47.790;7.322;2023-02-15T17:22:55;3.75;;;2.35;;
13240;SDS011;6687;47.790;7.322;2023-02-15T17:25:24;2.50;;;2.30;;
13240;SDS011;6687;47.790;7.322;2023-02-15T17:27:55;4.40;;;2.72;;
13240;SDS011;6687;47.790;7.322;2023-02-15T17:30:24;6.95;;;3.47;;
13240;SDS011;6687;47.790;7.322;2023-02-15T17:32:57;3.42;;;2.88;;
13240;SDS011;6687;47.790;7.322;2023-02-15T17:35:26;2.53;;;2.33;;
13240;SDS011;6687;47.790;7.322;2023-02-15T17:38:01;3.25;;;2.97;;
13240;SDS011;6687;47.790;7.322;2023-02-15T17:40:31;3.15;;;2.38;;
13240;SDS011;6687;47.790;7.322;2023-02-15T17:42:59;3.53;;;2.85;;
13240;SDS011;6687;47.790;7.322;2023-02-15T17:45:26;4.50;;;3.10;;
13240;SDS011;6687;47.790;7.322;2023-02-15T17:48:01;3.65;;;2.75;;
13240;SDS011;6687;47.790;7.322;2023-02-15T17:50:29;3.25;;;2.85;;
13240;SDS011;6687;47.790;7.322;2023-02-15T17:52:59;2.95;;;2.20;;
13240;SDS011;6687;47.790;7.322;2023-02-15T17:55:27;2.92;;;2.20;;
13240;SDS011;6687;47.790;7.322;2023-02-15T17:58:08;2.63;;;2.35;;
13240;SDS011;6687;47.790;7.322;2023-02-15T18:00:38;5.13;;;2.67;;
13240;SDS011;6687;47.790;7.322;2023-02-15T18:03:28;4.57;;;2.90;;
13240;SDS011;6687;47.790;7.322;2023-02-15T18:06:19;4.30;;;3.13;;
13240;SDS011;6687;47.790;7.322;2023-02-15T18:09:03;3.20;;;2.70;;
13240;SDS011;6687;47.790;7.322;2023-02-15T18:11:48;3.20;;;2.90;;
13240;SDS011;6687;47.790;7.322;2023-02-15T18:14:15;9.52;;;6.43;;
13240;SDS011;6687;47.790;7.322;2023-02-15T18:16:43;7.45;;;4.65;;
13240;SDS011;6687;47.790;7.322;2023-02-15T18:19:12;3.50;;;2.90;;
13240;SDS011;6687;47.790;7.322;2023-02-15T18:21:42;4.03;;;3.67;;
13240;SDS011;6687;47.790;7.322;2023-02-15T18:24:16;4.65;;;2.92;;
13240;SDS011;6687;47.790;7.322;2023-02-15T18:26:45;3.30;;;2.78;;
13240;SDS011;6687;47.790;7.322;2023-02-15T18:29:12;5.40;;;3.33;;
13240;SDS011;6687;47.790;7.322;2023-02-15T18:31:39;3.63;;;3.33;;
13240;SDS011;6687;47.790;7.322;2023-02-15T18:34:08;3.75;;;2.83;;
13240;SDS011;6687;47.790;7.322;2023-02-15T18:36:47;4.05;;;3.35;;
13240;SDS011;6687;47.790;7.322;2023-02-15T18:39:23;2.78;;;2.50;;
13240;SDS011;6687;47.790;7.322;2023-02-15T18:41:52;3.53;;;3.22;;
13240;SDS011;6687;47.790;7.322;2023-02-15T18:44:19;2.67;;;2.30;;
13240;SDS011;6687;47.790;7.322;2023-02-15T18:46:46;3.45;;;2.78;;
13240;SDS011;6687;47.790;7.322;2023-02-15T18:49:14;2.85;;;2.28;;
13240;SDS011;6687;47.790;7.322;2023-02-15T18:51:41;3.97;;;2.60;;
13240;SDS011;6687;47.790;7.322;2023-02-15T18:54:12;3.58;;;3.00;;
13240;SDS011;6687;47.790;7.322;2023-02-15T18:56:42;3.63;;;3.33;;
13240;SDS011;6687;47.790;7.322;2023-02-15T18:59:12;2.65;;;2.45;;
13240;SDS011;6687;47.790;7.322;2023-02-15T19:01:40;2.75;;;2.55;;
13240;SDS011;6687;47.790;7.322;2023-02-15T19:04:07;4.45;;;2.63;;
13240;SDS011;6687;47.790;7.322;2023-02-15T19:06:42;5.20;;;3.30;;
13240;SDS011;6687;47.790;7.322;2023-02-15T19:09:11;3.13;;;2.78;;
13240;SDS011;6687;47.790;7.322;2023-02-15T19:11:41;3.00;;;2.58;;
13240;SDS011;6687;47.790;7.322;2023-02-15T19:14:12;2.13;;;1.92;;
13240;SDS011;6687;47.790;7.322;2023-02-15T19:16:48;4.57;;;3.10;;
13240;SDS011;6687;47.790;7.322;2023-02-15T19:19:15;4.72;;;2.90;;
13240;SDS011;6687;47.790;7.322;2023-02-15T19:21:43;4.85;;;2.72;;
13240;SDS011;6687;47.790;7.322;2023-02-15T19:24:11;4.00;;;2.78;;
13240;SDS011;6687;47.790;7.322;2023-02-15T19:26:41;3.33;;;3.03;;
13240;SDS011;6687;47.790;7.322;2023-02-15T19:29:09;3.17;;;2.83;;
13240;SDS011;6687;47.790;7.322;2023-02-15T19:31:38;2.58;;;2.13;;
13240;SDS011;6687;47.790;7.322;2023-02-15T19:34:09;4.15;;;2.83;;
13240;SDS011;6687;47.790;7.322;2023-02-15T19:36:38;4.60;;;2.97;;
13240;SDS011;6687;47.790;7.322;2023-02-15T19:39:07;5.47;;;3.55;;
13240;SDS011;6687;47.790;7.322;2023-02-15T19:41:48;3.50;;;3.20;;
13240;SDS011;6687;47.790;7.322;2023-02-15T19:44:15;2.97;;;2.72;;
13240;SDS011;6687;47.790;7.322;2023-02-15T19:46:42;2.30;;;2.10;;
13240;SDS011;6687;47.790;7.322;2023-02-15T19:49:09;2.15;;;1.98;;
13240;SDS011;6687;47.790;7.322;2023-02-15T19:51:36;3.92;;;2.67;;
13240;SDS011;6687;47.790;7.322;2023-02-15T19:54:04;2.47;;;2.10;;
13240;SDS011;6687;47.790;7.322;2023-02-15T19:56:44;6.70;;;3.45;;
13240;SDS011;6687;47.790;7.322;2023-02-15T19:59:12;3.80;;;1.95;;
13240;SDS011;6687;47.790;7.322;2023-02-15T20:01:47;2.60;;;1.70;;
13240;SDS011;6687;47.790;7.322;2023-02-15T20:04:14;3.10;;;2.40;;
13240;SDS011;6687;47.790;7.322;2023-02-15T20:06:40;3.08;;;2.22;;
13240;SDS011;6687;47.790;7.322;2023-02-15T20:09:09;2.33;;;2.15;;
13240;SDS011;6687;47.790;7.322;2023-02-15T20:11:43;5.15;;;2.90;;
13240;SDS011;6687;47.790;7.322;2023-02-15T20:14:09;3.40;;;3.03;;
13240;SDS011;6687;47.790;7.322;2023-02-15T20:16:39;3.30;;;3.00;;
13240;SDS011;6687;47.790;7.322;2023-02-15T20:19:05;4.20;;;3.17;;
13240;SDS011;6687;47.790;7.322;2023-02-15T20:21:32;2.95;;;2.63;;
13240;SDS011;6687;47.790;7.322;2023-02-15T20:24:00;4.13;;;3.40;;
13240;SDS011;6687;47.790;7.322;2023-02-15T20:26:29;4.72;;;3.03;;
13240;SDS011;6687;47.790;7.322;2023-02-15T20:28:57;2.78;;;2.60;;
13240;SDS011;6687;47.790;7.322;2023-02-15T20:31:23;3.58;;;3.05;;
13240;SDS011;6687;47.790;7.322;2023-02-15T20:33:50;4.80;;;4.03;;
13240;SDS011;6687;47.790;7.322;2023-02-15T20:36:18;3.72;;;3.38;;
13240;SDS011;6687;47.790;7.322;2023-02-15T20:38:46;4.35;;;3.92;;
13240;SDS011;6687;47.790;7.322;2023-02-15T20:41:14;4.47;;;3.80;;
13240;SDS011;6687;47.790;7.322;2023-02-15T20:44:07;5.68;;;4.53;;
13240;SDS011;6687;47.790;7.322;2023-02-15T20:46:41;7.80;;;4.10;;
13240;SDS011;6687;47.790;7.322;2023-02-15T20:49:08;5.78;;;3.60;;
13240;SDS011;6687;47.790;7.322;2023-02-15T20:51:35;5.10;;;3.97;;
13240;SDS011;6687;47.790;7.322;2023-02-15T20:54:07;8.02;;;4.25;;
13240;SDS011;6687;47.790;7.322;2023-02-15T20:56:37;6.40;;;4.32;;
13240;SDS011;6687;47.790;7.322;2023-02-15T20:59:08;4.93;;;3.40;;
13240;SDS011;6687;47.790;7.322;2023-02-15T21:01:45;5.20;;;3.03;;
13240;SDS011;6687;47.790;7.322;2023-02-15T21:04:12;3.80;;;3.50;;
13240;SDS011;6687;47.790;7.322;2023-02-15T21:06:43;7.47;;;4.40;;
13240;SDS011;6687;47.790;7.322;2023-02-15T21:09:11;6.57;;;3.80;;
13240;SDS011;6687;47.790;7.322;2023-02-15T21:11:40;6.60;;;4.47;;
13240;SDS011;6687;47.790;7.322;2023-02-15T21:14:10;4.63;;;3.92;;
13240;SDS011;6687;47.790;7.322;2023-02-15T21:16:42;7.15;;;4.20;;
13240;SDS011;6687;47.790;7.322;2023-02-15T21:19:10;6.55;;;4.88;;
13240;SDS011;6687;47.790;7.322;2023-02-15T21:21:38;7.78;;;4.55;;
13240;SDS011;6687;47.790;7.322;2023-02-15T21:24:05;4.70;;;3.83;;
13240;SDS011;6687;47.790;7.322;2023-02-15T21:26:37;5.43;;;3.90;;
13240;SDS011;6687;47.790;7.322;2023-02-15T21:29:10;5.43;;;4.45;;
13240;SDS011;6687;47.790;7.322;2023-02-15T21:31:40;4.90;;;3.63;;
13240;SDS011;6687;47.790;7.322;2023-02-15T21:34:06;7.82;;;4.55;;
13240;SDS011;6687;47.790;7.322;2023-02-15T21:36:33;6.30;;;4.13;;
13240;SDS011;6687;47.790;7.322;2023-02-15T21:39:00;4.30;;;3.28;;
13240;SDS011;6687;47.790;7.322;2023-02-15T21:41:27;4.35;;;3.45;;
13240;SDS011;6687;47.790;7.322;2023-02-15T21:44:17;6.40;;;4.40;;
13240;SDS011;6687;47.790;7.322;2023-02-15T21:47:02;3.22;;;2.88;;
13240;SDS011;6687;47.790;7.322;2023-02-15T21:49:47;4.40;;;3.25;;
13240;SDS011;6687;47.790;7.322;2023-02-15T21:52:15;6.15;;;3.90;;
13240;SDS011;6687;47.790;7.322;2023-02-15T21:54:45;5.63;;;3.42;;
13240;SDS011;6687;47.790;7.322;2023-02-15T21:57:12;5.45;;;4.28;;
13240;SDS011;6687;47.790;7.322;2023-02-15T21:59:42;3.90;;;3.28;;
13240;SDS011;6687;47.790;7.322;2023-02-15T22:02:21;4.47;;;3.80;;
13240;SDS011;6687;47.790;7.322;2023-02-15T22:04:52;4.50;;;3.20;;
13240;SDS011;6687;47.790;7.322;2023-02-15T22:07:20;5.00;;;4.00;;